Time;durP1;ratioP1;P1;durP2;ratioP2;P2;SDS_P1;SDS_P2;PMS_P1;PMS_P2;Temp;Humidity;BMP_temperature;BMP_pressure;BME280_temperature;BME280_humidity;BME280_pressure;Samples;Min_cycle;Max_cycle;Signal;HPM_P1;HPM_P2
2024/01/20 00:00:22;;;;;;;0.50;0.50;;;;;;;;;;1047464;28;20494;-21
2024/01/20 00:00:52;;;;;;;0.90;0.85;;;;;;;;;;1047520;28;20021;-22
2024/01/20 00:01:23;;;;;;;0.80;0.80;;;;;;;;;;1047879;28;20020;-21
2024/01/20 00:01:53;;;;;;;0.50;0.50;;;;;;;;;;1047757;28;20024;-20
2024/01/20 00:02:24;;;;;;;1.52;1.13;;;;;;;;;;1048036;28;20025;-22
2024/01/20 00:02:54;;;;;;;2.63;1.88;;;;;;;;;;1046819;28;20052;-21
2024/01/20 00:03:25;;;;;;;0.32;0.32;;;;;;;;;;1046638;28;20060;-21
2024/01/20 00:03:55;;;;;;;2.40;1.00;;;;;;;;;;1047557;28;20025;-20
2024/01/20 00:04:26;;;;;;;3.45;2.15;;;;;;;;;;1047732;28;20032;-22
2024/01/20 00:04:56;;;;;;;0.85;0.85;;;;;;;;;;1047931;28;20039;-20
2024/01/20 00:05:26;;;;;;;1.20;1.17;;;;;;;;;;1047817;28;20036;-21
2024/01/20 00:05:57;;;;;;;0.40;0.40;;;;;;;;;;1047633;28;20395;-19
2024/01/20 00:06:27;;;;;;;0.90;0.90;;;;;;;;;;1047956;28;20456;-21
2024/01/20 00:06:58;;;;;;;1.65;1.55;;;;;;;;;;1047856;28;20487;-19
2024/01/20 00:07:28;;;;;;;2.00;1.50;;;;;;;;;;1047555;28;20055;-20
2024/01/20 00:07:59;;;;;;;1.63;1.52;;;;;;;;;;1047530;28;20020;-21
2024/01/20 00:08:29;;;;;;;0.95;0.95;;;;;;;;;;1047585;28;20086;-21
2024/01/20 00:08:59;;;;;;;4.82;1.92;;;;;;;;;;1047763;28;20028;-19
2024/01/20 00:09:31;;;;;;;9.43;2.53;;;;;;;;;;1047721;28;20039;-21
2024/01/20 00:10:01;;;;;;;6.85;2.40;;;;;;;;;;1047901;28;20052;-21
2024/01/20 00:10:31;;;;;;;23.98;1.35;;;;;;;;;;1048632;28;20013;-20
2024/01/20 00:11:02;;;;;;;4.00;2.85;;;;;;;;;;1048655;28;20468;-20
2024/01/20 00:11:32;;;;;;;3.20;3.00;;;;;;;;;;1048527;28;20139;-22
2024/01/20 00:12:03;;;;;;;3.08;2.53;;;;;;;;;;1048684;28;20032;-21
2024/01/20 00:12:35;;;;;;;6.95;1.42;;;;;;;;;;1048252;28;20073;-21
2024/01/20 00:13:05;;;;;;;8.63;4.00;;;;;;;;;;1048362;28;20020;-20
2024/01/20 00:13:36;;;;;;;1.73;1.63;;;;;;;;;;1048390;28;20024;-21
2024/01/20 00:14:06;;;;;;;2.45;1.48;;;;;;;;;;1048016;28;20029;-22
2024/01/20 00:14:37;;;;;;;0.50;0.50;;;;;;;;;;1048488;28;20020;-19
2024/01/20 00:15:08;;;;;;;1.52;1.42;;;;;;;;;;1048570;28;20020;-19
2024/01/20 00:15:39;;;;;;;1.15;1.15;;;;;;;;;;1048171;28;20024;-20
2024/01/20 00:16:09;;;;;;;1.05;1.00;;;;;;;;;;1048168;28;20036;-20
2024/01/20 00:16:40;;;;;;;1.90;1.75;;;;;;;;;;1048487;28;20043;-21
2024/01/20 00:17:10;;;;;;;0.60;0.45;;;;;;;;;;1048734;28;20024;-21
2024/01/20 00:17:41;;;;;;;4.75;1.70;;;;;;;;;;1048354;28;20442;-22
2024/01/20 00:18:11;;;;;;;5.80;3.72;;;;;;;;;;1048659;28;20024;-20
2024/01/20 00:18:42;;;;;;;0.70;0.70;;;;;;;;;;1048304;28;20020;-20
2024/01/20 00:19:12;;;;;;;2.30;2.10;;;;;;;;;;1048634;28;20107;-21
2024/01/20 00:19:43;;;;;;;1.88;1.23;;;;;;;;;;1048372;28;20083;-21
2024/01/20 00:20:13;;;;;;;16.02;3.85;;;;;;;;;;1048603;28;20117;-20
2024/01/20 00:20:45;;;;;;;0.30;0.30;;;;;;;;;;1048443;28;20016;-20
2024/01/20 00:21:16;;;;;;;0.43;0.43;;;;;;;;;;1048687;28;20025;-19
2024/01/20 00:21:46;;;;;;;0.43;0.43;;;;;;;;;;1047929;28;20029;-20
2024/01/20 00:22:17;;;;;;;0.80;0.80;;;;;;;;;;1048392;28;20142;-19
2024/01/20 00:22:48;;;;;;;0.60;0.60;;;;;;;;;;1048037;28;20119;-22
2024/01/20 00:23:19;;;;;;;1.02;0.93;;;;;;;;;;1047879;28;20523;-21
2024/01/20 00:23:49;;;;;;;3.97;2.60;;;;;;;;;;1048327;28;20024;-21
2024/01/20 00:24:20;;;;;;;4.88;2.58;;;;;;;;;;1048441;28;20048;-20
2024/01/20 00:24:50;;;;;;;6.00;2.67;;;;;;;;;;1048710;28;20020;-19
2024/01/20 00:25:21;;;;;;;0.17;0.17;;;;;;;;;;1048612;28;20067;-20
2024/01/20 00:25:51;;;;;;;0.20;0.20;;;;;;;;;;1048513;28;20100;-21
2024/01/20 00:26:22;;;;;;;0.80;0.77;;;;;;;;;;1048314;28;20022;-22
2024/01/20 00:26:52;;;;;;;0.75;0.75;;;;;;;;;;1048549;28;20571;-21
2024/01/20 00:27:22;;;;;;;0.25;0.25;;;;;;;;;;1048659;28;20031;-20
2024/01/20 00:27:53;;;;;;;1.23;1.15;;;;;;;;;;1048499;28;20029;-20
2024/01/20 00:28:23;;;;;;;9.98;1.20;;;;;;;;;;1047981;28;20021;-21
2024/01/20 00:28:54;;;;;;;0.68;0.63;;;;;;;;;;1048325;28;20115;-22
2024/01/20 00:29:24;;;;;;;0.13;0.13;;;;;;;;;;1048225;28;20150;-21
2024/01/20 00:29:55;;;;;;;2.78;2.58;;;;;;;;;;1048400;28;20078;-22
2024/01/20 00:30:25;;;;;;;0.20;0.20;;;;;;;;;;1048592;28;20090;-19
2024/01/20 00:30:55;;;;;;;1.02;0.95;;;;;;;;;;1048293;28;20032;-22
2024/01/20 00:31:26;;;;;;;1.65;0.80;;;;;;;;;;1048267;28;20458;-21
2024/01/20 00:31:56;;;;;;;4.18;0.82;;;;;;;;;;1048175;28;20036;-21
2024/01/20 00:32:27;;;;;;;0.20;0.20;;;;;;;;;;1048367;28;20025;-21
2024/01/20 00:32:57;;;;;;;2.80;2.60;;;;;;;;;;1048311;28;20033;-21
2024/01/20 00:33:28;;;;;;;0.30;0.30;;;;;;;;;;1048373;28;20024;-20
2024/01/20 00:33:58;;;;;;;1.17;1.08;;;;;;;;;;1048243;28;20103;-20
2024/01/20 00:34:28;;;;;;;1.58;1.48;;;;;;;;;;1048462;28;20028;-20
2024/01/20 00:35:00;;;;;;;0.63;0.63;;;;;;;;;;1048503;28;20033;-20
2024/01/20 00:35:31;;;;;;;0.45;0.45;;;;;;;;;;1048440;28;20028;-20
2024/01/20 00:36:01;;;;;;;0.30;0.30;;;;;;;;;;1048363;28;20391;-21
2024/01/20 00:36:31;;;;;;;1.30;1.20;;;;;;;;;;1048482;28;20017;-22
2024/01/20 00:37:03;;;;;;;1.35;1.25;;;;;;;;;;1048469;28;20172;-21
2024/01/20 00:37:37;;;;;;;3.53;2.17;;;;;;;;;;1047972;28;20020;-22
2024/01/20 00:38:08;;;;;;;1.13;1.05;;;;;;;;;;1048163;28;20074;-19
2024/01/20 00:38:42;;;;;;;1.20;1.10;;;;;;;;;;1048287;28;20115;-21
2024/01/20 00:39:14;;;;;;;0.30;0.30;;;;;;;;;;1047910;28;20024;-22
2024/01/20 00:39:45;;;;;;;1.05;1.05;;;;;;;;;;1048335;28;20028;-22
2024/01/20 00:40:15;;;;;;;0.77;0.77;;;;;;;;;;1048620;28;20020;-20
2024/01/20 00:40:45;;;;;;;0.20;0.20;;;;;;;;;;1048451;28;20077;-22
2024/01/20 00:41:16;;;;;;;0.73;0.57;;;;;;;;;;1048728;28;20064;-21
2024/01/20 00:41:46;;;;;;;0.60;0.43;;;;;;;;;;1048293;28;20028;-20
2024/01/20 00:42:17;;;;;;;1.92;1.83;;;;;;;;;;1048713;28;20017;-20
2024/01/20 00:42:47;;;;;;;0.63;0.63;;;;;;;;;;1048412;28;20577;-20
2024/01/20 00:43:18;;;;;;;0.88;0.88;;;;;;;;;;1048068;28;20070;-20
2024/01/20 00:43:48;;;;;;;1.55;1.45;;;;;;;;;;1047571;28;20467;-20
2024/01/20 00:44:19;;;;;;;2.55;1.25;;;;;;;;;;1048462;28;20023;-22
2024/01/20 00:44:49;;;;;;;2.40;0.98;;;;;;;;;;1048310;28;20391;-22
2024/01/20 00:45:20;;;;;;;1.15;1.05;;;;;;;;;;1048587;28;20028;-20
2024/01/20 00:45:50;;;;;;;0.88;0.88;;;;;;;;;;1048390;28;20027;-21
2024/01/20 00:46:21;;;;;;;3.20;2.28;;;;;;;;;;1048335;28;20021;-22
2024/01/20 00:46:51;;;;;;;7.45;1.42;;;;;;;;;;1048447;28;20025;-22
2024/01/20 00:47:22;;;;;;;1.55;1.45;;;;;;;;;;1048250;28;20074;-21
2024/01/20 00:47:52;;;;;;;0.30;0.30;;;;;;;;;;1048146;28;20175;-21
2024/01/20 00:48:23;;;;;;;1.08;0.98;;;;;;;;;;1048201;28;20040;-20
2024/01/20 00:48:53;;;;;;;3.85;2.22;;;;;;;;;;1048305;28;20012;-21
2024/01/20 00:49:24;;;;;;;2.35;1.15;;;;;;;;;;1048376;28;20021;-19
2024/01/20 00:49:54;;;;;;;1.35;0.98;;;;;;;;;;1048357;28;20024;-22
2024/01/20 00:50:25;;;;;;;3.10;1.65;;;;;;;;;;1048445;28;20021;-21
2024/01/20 00:50:55;;;;;;;2.22;0.98;;;;;;;;;;1048001;28;20107;-19
2024/01/20 00:51:26;;;;;;;1.40;1.25;;;;;;;;;;1048274;28;20024;-20
2024/01/20 00:51:56;;;;;;;0.80;0.80;;;;;;;;;;1047987;28;20502;-20
2024/01/20 00:52:27;;;;;;;1.92;0.98;;;;;;;;;;1048149;28;20423;-21
2024/01/20 00:52:57;;;;;;;1.30;1.20;;;;;;;;;;1048331;28;20025;-20
2024/01/20 00:53:27;;;;;;;0.40;0.40;;;;;;;;;;1048316;28;20024;-20
2024/01/20 00:53:58;;;;;;;0.20;0.20;;;;;;;;;;1048130;28;20020;-21
2024/01/20 00:54:28;;;;;;;1.75;1.45;;;;;;;;;;1048379;28;20146;-21
2024/01/20 00:54:59;;;;;;;5.55;1.52;;;;;;;;;;1048568;28;20024;-20
2024/01/20 00:55:29;;;;;;;2.67;1.55;;;;;;;;;;1048501;28;20029;-20
2024/01/20 00:55:59;;;;;;;0.20;0.20;;;;;;;;;;1048248;28;20070;-21
2024/01/20 00:56:30;;;;;;;0.45;0.45;;;;;;;;;;1048483;28;20074;-20
2024/01/20 00:57:00;;;;;;;1.90;1.77;;;;;;;;;;1048602;28;20027;-20
2024/01/20 00:57:31;;;;;;;2.42;1.80;;;;;;;;;;1048333;28;20025;-22
2024/01/20 00:58:01;;;;;;;3.30;1.77;;;;;;;;;;1047976;28;20430;-21
2024/01/20 00:58:32;;;;;;;0.50;0.50;;;;;;;;;;1048414;28;20476;-20
2024/01/20 00:59:02;;;;;;;0.40;0.40;;;;;;;;;;1048049;28;20074;-20
2024/01/20 00:59:33;;;;;;;1.70;1.38;;;;;;;;;;1047923;28;20128;-21
2024/01/20 01:00:08;;;;;;;0.90;0.90;;;;;;;;;;1048342;28;20029;-20
2024/01/20 01:00:38;;;;;;;1.70;1.58;;;;;;;;;;1048234;28;20024;-21
2024/01/20 01:01:09;;;;;;;1.70;1.45;;;;;;;;;;1048607;28;20533;-19
2024/01/20 01:01:39;;;;;;;0.60;0.60;;;;;;;;;;1048165;28;20511;-20
2024/01/20 01:02:10;;;;;;;0.45;0.32;;;;;;;;;;1048536;28;20119;-20
2024/01/20 01:02:41;;;;;;;0.47;0.47;;;;;;;;;;1048182;28;20035;-20
2024/01/20 01:03:11;;;;;;;0.40;0.40;;;;;;;;;;1048635;28;20074;-21
2024/01/20 01:03:42;;;;;;;7.95;1.20;;;;;;;;;;1048040;28;20120;-19
2024/01/20 01:04:13;;;;;;;1.30;1.25;;;;;;;;;;1048251;28;20479;-22
2024/01/20 01:04:43;;;;;;;0.82;0.82;;;;;;;;;;1048201;28;20021;-20
2024/01/20 01:05:14;;;;;;;1.23;1.13;;;;;;;;;;1048332;28;20038;-22
2024/01/20 01:05:44;;;;;;;1.50;0.88;;;;;;;;;;1045969;28;20017;-21
2024/01/20 01:06:14;;;;;;;1.90;1.75;;;;;;;;;;1048361;28;20028;-22
2024/01/20 01:06:45;;;;;;;0.10;0.10;;;;;;;;;;1047474;28;20013;-21
2024/01/20 01:07:15;;;;;;;1.85;1.75;;;;;;;;;;1047797;28;20107;-22
2024/01/20 01:07:46;;;;;;;4.07;1.17;;;;;;;;;;1047186;28;20024;-21
2024/01/20 01:08:16;;;;;;;5.13;4.68;;;;;;;;;;1048220;28;20109;-19
2024/01/20 01:08:47;;;;;;;2.78;1.30;;;;;;;;;;1047563;28;20024;-22
2024/01/20 01:09:17;;;;;;;0.55;0.55;;;;;;;;;;1047958;28;20030;-20
2024/01/20 01:09:48;;;;;;;1.73;1.63;;;;;;;;;;1048008;28;20035;-21
2024/01/20 01:10:18;;;;;;;0.50;0.50;;;;;;;;;;1048204;28;20028;-22
2024/01/20 01:10:49;;;;;;;2.05;1.40;;;;;;;;;;1048177;28;20447;-22
2024/01/20 01:11:19;;;;;;;0.70;0.70;;;;;;;;;;1048117;28;20027;-22
2024/01/20 01:11:50;;;;;;;0.28;0.28;;;;;;;;;;1048142;28;20020;-20
2024/01/20 01:12:20;;;;;;;0.35;0.32;;;;;;;;;;1047691;28;20115;-20
2024/01/20 01:12:51;;;;;;;0.55;0.55;;;;;;;;;;1048130;28;20016;-19
2024/01/20 01:13:21;;;;;;;0.30;0.30;;;;;;;;;;1048137;28;20102;-20
2024/01/20 01:13:51;;;;;;;0.60;0.60;;;;;;;;;;1047866;28;20094;-22
2024/01/20 01:14:22;;;;;;;0.40;0.40;;;;;;;;;;1047992;28;20115;-20
2024/01/20 01:14:52;;;;;;;0.30;0.30;;;;;;;;;;1047829;28;20052;-20
2024/01/20 01:15:23;;;;;;;0.40;0.40;;;;;;;;;;1047694;28;20417;-20
2024/01/20 01:15:54;;;;;;;2.35;1.67;;;;;;;;;;1047156;28;20031;-22
2024/01/20 01:16:24;;;;;;;2.38;2.22;;;;;;;;;;1047866;28;20025;-20
2024/01/20 01:16:55;;;;;;;0.52;0.52;;;;;;;;;;1047753;28;20028;-22
2024/01/20 01:17:25;;;;;;;1.05;1.05;;;;;;;;;;1047714;28;20056;-21
2024/01/20 01:17:56;;;;;;;1.38;1.25;;;;;;;;;;1047831;28;20020;-22
2024/01/20 01:18:26;;;;;;;0.93;0.93;;;;;;;;;;1048118;28;20060;-22
2024/01/20 01:18:56;;;;;;;0.60;0.60;;;;;;;;;;1047870;28;20025;-20
2024/01/20 01:19:27;;;;;;;3.65;2.00;;;;;;;;;;1048014;28;20086;-22
2024/01/20 01:19:57;;;;;;;0.38;0.38;;;;;;;;;;1047973;28;20028;-20
2024/01/20 01:20:28;;;;;;;1.30;1.08;;;;;;;;;;1048206;28;20035;-21
2024/01/20 01:20:58;;;;;;;1.90;0.82;;;;;;;;;;1047422;28;20526;-22
2024/01/20 01:21:28;;;;;;;14.02;2.47;;;;;;;;;;1047390;28;20029;-19
2024/01/20 01:21:59;;;;;;;1.48;1.40;;;;;;;;;;1047477;28;20056;-21
2024/01/20 01:22:29;;;;;;;0.45;0.45;;;;;;;;;;1048243;28;20431;-23
2024/01/20 01:23:00;;;;;;;1.17;1.15;;;;;;;;;;1048028;28;20499;-21
2024/01/20 01:23:30;;;;;;;0.35;0.35;;;;;;;;;;1047958;28;20145;-22
2024/01/20 01:24:01;;;;;;;0.70;0.70;;;;;;;;;;1047697;28;20066;-20
2024/01/20 01:24:31;;;;;;;3.83;1.00;;;;;;;;;;1047595;28;20115;-22
2024/01/20 01:25:02;;;;;;;0.20;0.20;;;;;;;;;;1047330;28;20028;-22
2024/01/20 01:25:32;;;;;;;1.80;0.93;;;;;;;;;;1047931;28;20028;-22
2024/01/20 01:26:03;;;;;;;0.98;0.82;;;;;;;;;;1048076;28;20032;-20
2024/01/20 01:26:33;;;;;;;0.60;0.60;;;;;;;;;;1048042;28;20549;-21
2024/01/20 01:27:07;;;;;;;0.32;0.32;;;;;;;;;;1048302;28;20024;-20
2024/01/20 01:27:38;;;;;;;0.30;0.30;;;;;;;;;;1047776;28;20093;-21
2024/01/20 01:28:08;;;;;;;1.48;1.38;;;;;;;;;;1048118;28;20016;-21
2024/01/20 01:28:38;;;;;;;0.40;0.40;;;;;;;;;;1047393;28;20032;-20
2024/01/20 01:29:09;;;;;;;2.08;1.40;;;;;;;;;;1047958;28;20024;-22
2024/01/20 01:29:39;;;;;;;0.40;0.40;;;;;;;;;;1046290;28;20024;-21
2024/01/20 01:30:10;;;;;;;0.20;0.20;;;;;;;;;;1047497;28;20025;-22
2024/01/20 01:30:40;;;;;;;0.38;0.38;;;;;;;;;;1047131;28;20035;-20
2024/01/20 01:31:11;;;;;;;0.93;0.93;;;;;;;;;;1047198;28;20488;-21
2024/01/20 01:31:43;;;;;;;0.45;0.45;;;;;;;;;;1047197;28;20031;-21
2024/01/20 01:32:13;;;;;;;1.67;1.45;;;;;;;;;;1047548;28;20127;-20
2024/01/20 01:32:44;;;;;;;0.50;0.50;;;;;;;;;;1046519;28;20073;-20
2024/01/20 01:33:14;;;;;;;2.28;1.65;;;;;;;;;;1047332;28;20118;-20
2024/01/20 01:33:44;;;;;;;0.77;0.77;;;;;;;;;;1047566;28;20020;-18
2024/01/20 01:34:15;;;;;;;0.98;0.30;;;;;;;;;;1047949;28;20033;-20
2024/01/20 01:34:45;;;;;;;5.38;0.90;;;;;;;;;;1047700;28;20024;-22
2024/01/20 01:35:16;;;;;;;1.75;1.05;;;;;;;;;;1047691;28;20035;-22
2024/01/20 01:35:46;;;;;;;1.65;1.35;;;;;;;;;;1047377;28;20086;-22
2024/01/20 01:36:17;;;;;;;1.98;1.75;;;;;;;;;;1047944;28;20059;-21
2024/01/20 01:36:48;;;;;;;0.68;0.68;;;;;;;;;;1047747;28;20017;-22
2024/01/20 01:37:18;;;;;;;2.00;1.77;;;;;;;;;;1047599;28;20069;-22
2024/01/20 01:37:49;;;;;;;16.73;1.38;;;;;;;;;;1047640;28;20553;-19
2024/01/20 01:38:19;;;;;;;0.52;0.52;;;;;;;;;;1048200;28;20475;-20
2024/01/20 01:38:49;;;;;;;0.20;0.20;;;;;;;;;;1047611;28;20051;-21
2024/01/20 01:39:21;;;;;;;7.35;2.95;;;;;;;;;;1048169;28;20074;-23
2024/01/20 01:39:51;;;;;;;0.20;0.20;;;;;;;;;;1048165;28;20016;-22
2024/01/20 01:40:22;;;;;;;0.25;0.25;;;;;;;;;;1048026;28;20028;-22
2024/01/20 01:40:52;;;;;;;0.40;0.40;;;;;;;;;;1047969;28;20427;-21
2024/01/20 01:41:22;;;;;;;4.38;0.98;;;;;;;;;;1048246;28;20028;-20
2024/01/20 01:41:53;;;;;;;3.50;1.65;;;;;;;;;;1047957;28;20473;-21
2024/01/20 01:42:23;;;;;;;2.55;2.13;;;;;;;;;;1048046;28;20472;-22
2024/01/20 01:42:56;;;;;;;0.50;0.50;;;;;;;;;;1048162;28;20487;-20
2024/01/20 01:43:27;;;;;;;0.70;0.70;;;;;;;;;;1047297;28;20028;-22
2024/01/20 01:43:57;;;;;;;0.57;0.47;;;;;;;;;;1047868;28;20427;-22
2024/01/20 01:44:28;;;;;;;1.42;1.33;;;;;;;;;;1048023;28;20498;-20
2024/01/20 01:44:59;;;;;;;6.30;2.28;;;;;;;;;;1048104;28;20024;-21
2024/01/20 01:45:29;;;;;;;0.95;0.88;;;;;;;;;;1048288;28;20038;-21
2024/01/20 01:45:59;;;;;;;1.17;1.08;;;;;;;;;;1047660;28;20025;-22
2024/01/20 01:46:30;;;;;;;7.00;0.95;;;;;;;;;;1047994;28;20028;-20
2024/01/20 01:47:01;;;;;;;5.97;1.38;;;;;;;;;;1048200;28;20075;-20
2024/01/20 01:47:31;;;;;;;0.85;0.85;;;;;;;;;;1048224;28;20020;-20
2024/01/20 01:48:02;;;;;;;1.13;1.13;;;;;;;;;;1047985;28;20480;-21
2024/01/20 01:48:33;;;;;;;0.95;0.95;;;;;;;;;;1047748;28;20101;-20
2024/01/20 01:49:05;;;;;;;0.80;0.47;;;;;;;;;;1047681;28;20468;-20
2024/01/20 01:49:35;;;;;;;2.95;1.75;;;;;;;;;;1048083;28;20020;-21
2024/01/20 01:50:06;;;;;;;0.55;0.55;;;;;;;;;;1048113;28;20020;-21
2024/01/20 01:50:36;;;;;;;0.47;0.47;;;;;;;;;;1048009;28;20016;-21
2024/01/20 01:51:07;;;;;;;1.40;1.35;;;;;;;;;;1048238;28;20059;-22
2024/01/20 01:51:38;;;;;;;10.25;2.75;;;;;;;;;;1048059;28;20107;-20
2024/01/20 01:52:08;;;;;;;1.25;0.93;;;;;;;;;;1048320;28;20025;-21
2024/01/20 01:52:40;;;;;;;0.75;0.75;;;;;;;;;;1047843;28;20365;-19
2024/01/20 01:53:11;;;;;;;0.60;0.60;;;;;;;;;;1047200;28;20115;-18
2024/01/20 01:53:42;;;;;;;0.30;0.30;;;;;;;;;;1047842;28;20035;-20
2024/01/20 01:54:12;;;;;;;2.67;2.47;;;;;;;;;;1048093;28;20121;-20
2024/01/20 01:54:43;;;;;;;0.90;0.88;;;;;;;;;;1047748;28;20031;-19
2024/01/20 01:55:14;;;;;;;0.45;0.45;;;;;;;;;;1048295;28;20388;-22
2024/01/20 01:55:46;;;;;;;0.65;0.65;;;;;;;;;;1047858;28;20036;-20
2024/01/20 01:56:16;;;;;;;6.82;0.77;;;;;;;;;;1048175;28;20028;-21
2024/01/20 01:56:49;;;;;;;0.30;0.30;;;;;;;;;;1047969;28;20013;-20
2024/01/20 01:57:20;;;;;;;0.60;0.60;;;;;;;;;;1047917;28;20024;-22
2024/01/20 01:57:55;;;;;;;6.35;1.25;;;;;;;;;;1048242;28;20028;-22
2024/01/20 01:58:26;;;;;;;0.65;0.65;;;;;;;;;;1046883;28;20103;-22
2024/01/20 01:58:57;;;;;;;2.53;1.95;;;;;;;;;;1047921;28;20025;-22
2024/01/20 01:59:31;;;;;;;7.63;1.15;;;;;;;;;;1048105;28;20024;-21
2024/01/20 02:00:02;;;;;;;0.68;0.68;;;;;;;;;;1048131;28;20103;-21
2024/01/20 02:00:33;;;;;;;3.63;2.22;;;;;;;;;;1047745;28;20502;-21
2024/01/20 02:01:03;;;;;;;0.80;0.80;;;;;;;;;;1048161;28;20115;-22
2024/01/20 02:01:34;;;;;;;0.73;0.68;;;;;;;;;;1048109;28;20050;-20
2024/01/20 02:02:04;;;;;;;1.90;1.63;;;;;;;;;;1047640;28;20028;-22
2024/01/20 02:02:34;;;;;;;0.52;0.52;;;;;;;;;;1047348;28;20020;-22
2024/01/20 02:03:05;;;;;;;1.65;1.27;;;;;;;;;;1047782;28;20052;-21
2024/01/20 02:03:36;;;;;;;0.57;0.57;;;;;;;;;;1047569;28;20456;-21
2024/01/20 02:04:06;;;;;;;1.42;1.33;;;;;;;;;;1047581;28;20075;-20
2024/01/20 02:04:37;;;;;;;1.00;1.00;;;;;;;;;;1047534;28;20123;-21
2024/01/20 02:05:08;;;;;;;1.20;0.93;;;;;;;;;;1047622;28;20024;-20
2024/01/20 02:05:38;;;;;;;2.75;2.08;;;;;;;;;;1047812;28;20032;-19
2024/01/20 02:06:09;;;;;;;1.05;1.05;;;;;;;;;;1048244;28;20051;-22
2024/01/20 02:06:39;;;;;;;0.30;0.30;;;;;;;;;;1047803;28;20025;-21
2024/01/20 02:07:10;;;;;;;0.57;0.57;;;;;;;;;;1048250;28;20073;-19
2024/01/20 02:07:42;;;;;;;1.33;1.25;;;;;;;;;;1047750;28;20487;-22
2024/01/20 02:08:12;;;;;;;1.60;0.90;;;;;;;;;;1048250;28;20044;-20
2024/01/20 02:08:43;;;;;;;0.30;0.30;;;;;;;;;;1047628;28;20035;-22
2024/01/20 02:09:13;;;;;;;0.45;0.45;;;;;;;;;;1048052;28;20084;-20
2024/01/20 02:09:45;;;;;;;3.00;1.40;;;;;;;;;;1047952;28;20024;-22
2024/01/20 02:10:18;;;;;;;1.90;1.05;;;;;;;;;;1048169;28;20070;-20
2024/01/20 02:10:49;;;;;;;2.58;1.55;;;;;;;;;;1047352;28;20021;-21
2024/01/20 02:11:20;;;;;;;5.85;1.98;;;;;;;;;;1048182;28;20118;-22
2024/01/20 02:11:51;;;;;;;0.45;0.45;;;;;;;;;;1048005;28;20115;-22
2024/01/20 02:12:22;;;;;;;0.63;0.63;;;;;;;;;;1048127;28;20361;-21
2024/01/20 02:12:53;;;;;;;1.00;0.80;;;;;;;;;;1047862;28;20021;-21
2024/01/20 02:13:23;;;;;;;11.15;4.35;;;;;;;;;;1047754;28;20025;-20
2024/01/20 02:13:54;;;;;;;0.63;0.52;;;;;;;;;;1047638;28;20032;-20
2024/01/20 02:14:24;;;;;;;0.93;0.55;;;;;;;;;;1047821;28;20024;-21
2024/01/20 02:14:55;;;;;;;0.30;0.30;;;;;;;;;;1047880;28;20423;-20
2024/01/20 02:15:26;;;;;;;1.27;0.98;;;;;;;;;;1048096;28;20024;-19
2024/01/20 02:15:57;;;;;;;1.67;1.58;;;;;;;;;;1047325;28;20025;-21
2024/01/20 02:16:28;;;;;;;1.98;1.83;;;;;;;;;;1047903;28;20427;-21
2024/01/20 02:16:58;;;;;;;3.53;1.98;;;;;;;;;;1043477;28;20035;-21
2024/01/20 02:17:29;;;;;;;1.58;1.48;;;;;;;;;;1043726;28;20037;-20
2024/01/20 02:17:59;;;;;;;2.10;1.95;;;;;;;;;;1043548;28;20548;-22
2024/01/20 02:18:30;;;;;;;0.50;0.50;;;;;;;;;;1043306;28;20131;-22
2024/01/20 02:19:04;;;;;;;0.45;0.45;;;;;;;;;;1047933;28;20024;-20
2024/01/20 02:19:38;;;;;;;1.67;1.02;;;;;;;;;;1047577;28;20571;-19
2024/01/20 02:20:09;;;;;;;0.68;0.68;;;;;;;;;;1048076;28;20024;-21
2024/01/20 02:20:39;;;;;;;1.48;0.93;;;;;;;;;;1046740;28;20035;-20
2024/01/20 02:21:10;;;;;;;0.90;0.90;;;;;;;;;;1047056;28;20020;-21
2024/01/20 02:21:41;;;;;;;4.90;1.05;;;;;;;;;;1047159;28;20017;-20
2024/01/20 02:22:12;;;;;;;0.98;0.90;;;;;;;;;;1048053;28;20032;-22
2024/01/20 02:22:42;;;;;;;1.00;0.90;;;;;;;;;;1047271;28;20042;-22
2024/01/20 02:23:13;;;;;;;1.05;1.02;;;;;;;;;;1048076;28;20468;-20
2024/01/20 02:23:46;;;;;;;1.08;1.08;;;;;;;;;;1047646;28;20179;-22
2024/01/20 02:24:16;;;;;;;0.57;0.55;;;;;;;;;;1048056;28;20051;-21
2024/01/20 02:24:48;;;;;;;1.27;1.25;;;;;;;;;;1047787;28;20063;-22
2024/01/20 02:25:18;;;;;;;0.63;0.63;;;;;;;;;;1047717;28;20029;-22
2024/01/20 02:25:49;;;;;;;0.40;0.40;;;;;;;;;;1047798;28;20025;-21
2024/01/20 02:26:19;;;;;;;0.35;0.35;;;;;;;;;;1048177;28;20460;-20
2024/01/20 02:26:50;;;;;;;0.52;0.52;;;;;;;;;;1047791;28;20055;-19
2024/01/20 02:27:20;;;;;;;1.48;0.40;;;;;;;;;;1048100;28;20535;-18
2024/01/20 02:27:50;;;;;;;1.80;1.70;;;;;;;;;;1047960;28;20016;-21
2024/01/20 02:28:21;;;;;;;1.58;1.25;;;;;;;;;;1047789;28;20494;-22
2024/01/20 02:28:51;;;;;;;2.72;1.27;;;;;;;;;;1047270;28;20523;-21
2024/01/20 02:29:22;;;;;;;7.43;1.75;;;;;;;;;;1047958;28;20028;-22
2024/01/20 02:29:52;;;;;;;0.57;0.57;;;;;;;;;;1047749;28;20029;-20
2024/01/20 02:30:23;;;;;;;1.35;1.27;;;;;;;;;;1047981;28;20404;-22
2024/01/20 02:30:53;;;;;;;2.67;0.68;;;;;;;;;;1047542;28;20391;-19
2024/01/20 02:31:23;;;;;;;1.80;1.02;;;;;;;;;;1048041;28;20416;-19
2024/01/20 02:31:54;;;;;;;0.90;0.90;;;;;;;;;;1047714;28;20862;-21
2024/01/20 02:32:24;;;;;;;0.38;0.38;;;;;;;;;;1047848;28;20021;-22
2024/01/20 02:32:55;;;;;;;0.22;0.22;;;;;;;;;;1046865;28;20024;-20
2024/01/20 02:33:25;;;;;;;0.40;0.40;;;;;;;;;;1047846;28;20486;-22
2024/01/20 02:33:56;;;;;;;0.38;0.35;;;;;;;;;;1047676;28;20131;-20
2024/01/20 02:34:27;;;;;;;8.57;1.23;;;;;;;;;;1048586;28;20535;-22
2024/01/20 02:34:57;;;;;;;5.13;0.95;;;;;;;;;;1047773;28;20032;-22
2024/01/20 02:35:27;;;;;;;0.93;0.93;;;;;;;;;;1046525;28;20021;-21
2024/01/20 02:35:58;;;;;;;3.40;1.75;;;;;;;;;;1047166;28;20020;-22
2024/01/20 02:36:28;;;;;;;2.17;2.00;;;;;;;;;;1047989;28;20031;-21
2024/01/20 02:36:59;;;;;;;0.73;0.43;;;;;;;;;;1047728;28;20470;-20
2024/01/20 02:37:30;;;;;;;0.73;0.73;;;;;;;;;;1043350;28;20147;-22
2024/01/20 02:38:01;;;;;;;1.17;0.80;;;;;;;;;;1043129;28;20033;-20
2024/01/20 02:38:31;;;;;;;1.13;1.13;;;;;;;;;;1043243;28;20122;-20
2024/01/20 02:39:02;;;;;;;2.10;2.00;;;;;;;;;;1043543;28;20017;-21
2024/01/20 02:39:32;;;;;;;1.17;1.13;;;;;;;;;;1047805;28;20114;-20
2024/01/20 02:40:03;;;;;;;2.05;1.92;;;;;;;;;;1047783;28;20021;-19
2024/01/20 02:40:33;;;;;;;6.18;1.90;;;;;;;;;;1047755;28;20074;-21
2024/01/20 02:41:04;;;;;;;2.63;1.40;;;;;;;;;;1047992;28;20028;-22
2024/01/20 02:41:34;;;;;;;5.47;1.80;;;;;;;;;;1047982;28;20022;-21
2024/01/20 02:42:08;;;;;;;0.65;0.65;;;;;;;;;;1047408;28;20028;-20
2024/01/20 02:42:38;;;;;;;1.15;1.08;;;;;;;;;;1047020;28;20024;-21
2024/01/20 02:43:09;;;;;;;0.98;0.88;;;;;;;;;;1046704;28;20028;-20
2024/01/20 02:43:39;;;;;;;2.00;1.83;;;;;;;;;;1046210;28;20074;-22
2024/01/20 02:44:10;;;;;;;1.95;1.42;;;;;;;;;;1046802;28;20082;-21
2024/01/20 02:44:41;;;;;;;3.42;2.03;;;;;;;;;;1047622;28;20024;-21
2024/01/20 02:45:12;;;;;;;1.77;1.67;;;;;;;;;;1048015;28;20502;-22
2024/01/20 02:45:42;;;;;;;3.85;2.75;;;;;;;;;;1047366;28;20016;-20
2024/01/20 02:46:13;;;;;;;9.95;1.55;;;;;;;;;;1047475;28;20029;-21
2024/01/20 02:46:43;;;;;;;0.60;0.60;;;;;;;;;;1047345;28;20024;-20
2024/01/20 02:47:14;;;;;;;0.32;0.32;;;;;;;;;;1046716;28;20028;-19
2024/01/20 02:47:44;;;;;;;0.40;0.40;;;;;;;;;;1047041;28;20024;-22
2024/01/20 02:48:15;;;;;;;0.30;0.30;;;;;;;;;;1047232;28;20016;-21
2024/01/20 02:48:45;;;;;;;0.25;0.25;;;;;;;;;;1047327;28;20038;-20
2024/01/20 02:49:16;;;;;;;0.77;0.77;;;;;;;;;;1047112;28;20080;-22
2024/01/20 02:49:46;;;;;;;1.52;1.20;;;;;;;;;;1046635;28;20092;-23
2024/01/20 02:50:17;;;;;;;1.15;1.15;;;;;;;;;;1046588;28;20538;-21
2024/01/20 02:50:47;;;;;;;0.77;0.75;;;;;;;;;;1046775;28;20119;-22
2024/01/20 02:51:18;;;;;;;5.95;1.63;;;;;;;;;;1047204;28;20024;-21
2024/01/20 02:51:48;;;;;;;0.68;0.68;;;;;;;;;;1046381;28;20088;-23
2024/01/20 02:52:19;;;;;;;0.98;0.90;;;;;;;;;;1047319;28;20111;-23
2024/01/20 02:52:52;;;;;;;3.85;2.10;;;;;;;;;;1046169;28;20834;-22
2024/01/20 02:53:22;;;;;;;0.68;0.68;;;;;;;;;;1046625;28;20526;-20
2024/01/20 02:53:53;;;;;;;1.27;1.23;;;;;;;;;;1047117;28;20024;-19
2024/01/20 02:54:23;;;;;;;0.90;0.90;;;;;;;;;;1047561;28;20040;-23
2024/01/20 02:54:54;;;;;;;2.00;0.80;;;;;;;;;;1046660;28;20410;-21
2024/01/20 02:55:24;;;;;;;1.80;0.75;;;;;;;;;;1046981;28;20024;-21
2024/01/20 02:55:55;;;;;;;0.75;0.75;;;;;;;;;;1046718;28;20020;-23
2024/01/20 02:56:25;;;;;;;8.77;1.13;;;;;;;;;;1047694;28;20499;-22
2024/01/20 02:56:56;;;;;;;0.15;0.15;;;;;;;;;;1046119;28;20016;-23
2024/01/20 02:57:26;;;;;;;2.65;1.52;;;;;;;;;;1046526;28;20631;-22
2024/01/20 02:57:57;;;;;;;0.20;0.20;;;;;;;;;;1046991;28;20027;-22
2024/01/20 02:58:28;;;;;;;0.45;0.43;;;;;;;;;;1047288;28;20515;-21
2024/01/20 02:58:58;;;;;;;0.43;0.43;;;;;;;;;;1047009;28;20034;-20
2024/01/20 02:59:29;;;;;;;1.75;0.95;;;;;;;;;;1046993;28;20032;-22
2024/01/20 03:00:01;;;;;;;1.85;1.75;;;;;;;;;;1046855;28;20035;-22
2024/01/20 03:00:32;;;;;;;2.45;2.25;;;;;;;;;;1046867;28;20043;-22
2024/01/20 03:01:02;;;;;;;1.10;0.40;;;;;;;;;;1046876;28;20123;-22
2024/01/20 03:01:33;;;;;;;1.48;1.38;;;;;;;;;;1047361;28;20031;-22
2024/01/20 03:02:03;;;;;;;1.52;1.05;;;;;;;;;;1046812;28;20035;-21
2024/01/20 03:02:34;;;;;;;1.92;0.95;;;;;;;;;;1047401;28;20051;-23
2024/01/20 03:03:05;;;;;;;2.53;1.42;;;;;;;;;;1047421;28;20516;-22
2024/01/20 03:03:35;;;;;;;0.77;0.77;;;;;;;;;;1047159;28;20058;-21
2024/01/20 03:04:06;;;;;;;1.83;1.73;;;;;;;;;;1047284;28;20055;-22